Portada
METAR-TAF:

METAR-TAF

Aeropuertos :

Aeropuerto Internacional de Bagdad

Bagdad, Iraq

latitud: 33-15-45N, longitud: 44-14-04E, altitud: 35 m

Observación

El informe se hizo hace 13 minutos, a las 12:00 UTC
Viento 5 kt con dirección variable
Temperatura 22°C
Humedad 38%
Presión 1020 hPa
Visibilidad 10 km o más
sin nubes por debajo de 1500 m y sin presencia de cumulonimbus.

METAR: ORBI 271200Z VRB05KT CAVOK 22/07 Q1020 NOSIG

Hora: 15:13 (12:13 UTC)

Pronóstico

El informe se hizo hace 2 horas y 13 minutos, a las 10:00 UTC
Pronóstico válido del 27 a las 12 UTC al 28 a las 12 UTC
Viento 6 kt del oeste
Visibilidad 10 km o más
sin nubes por debajo de 1500 m y sin presencia de cumulonimbus.
Evolucionando progresivamente
del 28 a las 02 UTC al 28 a las 04 UTC
Visibilidad: 7000 m
Cielo nuboso a una altura de 3000 ft

TAF: ORBI 271000Z 2712/2812 28006KT CAVOK BECMG 2802/2804 7000 BKN030

Observaciones y pronósticos meteorológicos de más de 4000 aeropuertos (mensajes METAR y TAF).

Los puntos amarillos y rojos representan las estaciones disponibles.

Ponga el ratón en el punto deseado para ver el nombre de la estación.

Haga clic para ver las observaciones y los pronósticos meteorológicos.

Para cambiar el mapa : haga clic en los botones verdes con una cruz de color negro para hacer un zoom, en el botón verde con un guión para alejar o en las flechas verdes para mapas adyacentes.


METAR-TAF: